Time;durP1;ratioP1;P1;durP2;ratioP2;P2;SDS_P1;SDS_P2;PMS_P1;PMS_P2;Temp;Humidity;BMP_temperature;BMP_pressure;BME280_temperature;BME280_humidity;BME280_pressure;Samples;Min_cycle;Max_cycle;Signal;HPM_P1;HPM_P2
2023/03/31 00:02:00;;;;;;;54.00;7.45;;;8.60;81.70;;;;;;4099992;28;20502;-85
2023/03/31 00:04:12;;;;;;;55.60;7.63;;;8.60;81.60;;;;;;4124962;28;20129;-85
2023/03/31 00:06:16;;;;;;;59.45;7.97;;;8.50;81.60;;;;;;4092771;28;20043;-84
2023/03/31 00:08:18;;;;;;;51.58;7.40;;;8.60;81.60;;;;;;4125176;28;20886;-85
2023/03/31 00:10:19;;;;;;;63.97;8.55;;;8.60;81.70;;;;;;4108304;28;20110;-85
2023/03/31 00:12:20;;;;;;;51.45;7.30;;;8.50;81.60;;;;;;4106597;28;20050;-85
2023/03/31 00:14:21;;;;;;;80.25;10.02;;;8.50;81.60;;;;;;4101991;28;20599;-85
2023/03/31 00:16:26;;;;;;;69.72;9.80;;;8.50;81.70;;;;;;4105232;28;20043;-86
2023/03/31 00:18:30;;;;;;;56.83;8.00;;;8.50;81.60;;;;;;4108418;28;20027;-85
2023/03/31 00:21:08;;;;;;;50.80;8.23;;;8.50;81.70;;;;;;4104047;28;20038;-85
2023/03/31 00:23:14;;;;;;;44.55;7.22;;;8.40;81.70;;;;;;4109853;28;20103;-85
2023/03/31 00:25:15;;;;;;;54.92;7.80;;;8.30;81.50;;;;;;4123177;28;20034;-86
2023/03/31 00:27:19;;;;;;;45.03;7.32;;;8.40;81.60;;;;;;4107780;28;20046;-86
2023/03/31 00:29:27;;;;;;;51.20;8.35;;;8.40;81.70;;;;;;4105887;28;20050;-85
2023/03/31 00:31:29;;;;;;;52.42;7.25;;;8.40;81.70;;;;;;4121977;28;20066;-86
2023/03/31 00:33:38;;;;;;;56.35;7.75;;;8.40;81.70;;;;;;4109165;28;20042;-87
2023/03/31 00:35:46;;;;;;;46.95;7.18;;;8.40;81.80;;;;;;4120324;28;20027;-85
2023/03/31 00:37:47;;;;;;;44.15;7.10;;;8.40;81.90;;;;;;4090860;29;20094;-85
2023/03/31 00:39:55;;;;;;;41.88;7.07;;;8.30;81.80;;;;;;4090733;28;20039;-85
2023/03/31 00:42:04;;;;;;;61.85;8.40;;;8.30;81.80;;;;;;4104020;28;20209;-86
2023/03/31 00:44:28;;;;;;;55.50;7.55;;;8.30;81.80;;;;;;4117502;28;20058;-86
2023/03/31 00:47:06;;;;;;;49.67;7.85;;;8.30;81.80;;;;;;4090411;28;20037;-85
2023/03/31 00:49:19;;;;;;;44.78;7.32;;;8.30;81.80;;;;;;4122101;28;20054;-85
2023/03/31 00:51:24;;;;;;;50.08;7.43;;;8.30;81.70;;;;;;4109076;28;20149;-85
2023/03/31 00:53:36;;;;;;;57.03;8.43;;;8.20;81.60;;;;;;4104031;28;20093;-85
2023/03/31 00:55:51;;;;;;;51.10;9.00;;;8.30;81.70;;;;;;4106657;28;21092;-85
2023/03/31 00:57:54;;;;;;;55.88;8.25;;;8.20;81.60;;;;;;4104587;28;20394;-84
2023/03/31 01:00:00;;;;;;;55.85;8.05;;;8.20;81.70;;;;;;4077520;28;20051;-85
2023/03/31 01:02:02;;;;;;;72.25;9.70;;;8.20;81.90;;;;;;4121380;28;20031;-84
2023/03/31 01:04:06;;;;;;;51.30;8.90;;;8.20;82.00;;;;;;4121391;28;20037;-85
2023/03/31 01:06:09;;;;;;;56.38;8.55;;;8.20;82.00;;;;;;4118653;28;20041;-84
2023/03/31 01:08:11;;;;;;;71.85;10.00;;;8.10;82.10;;;;;;4107100;28;20114;-84
2023/03/31 01:10:12;;;;;;;74.80;9.98;;;8.20;82.30;;;;;;4104767;28;20027;-84
2023/03/31 01:12:16;;;;;;;70.82;10.35;;;8.20;82.40;;;;;;4119746;28;20086;-86
2023/03/31 01:14:18;;;;;;;53.92;9.32;;;8.20;82.50;;;;;;4103560;28;20518;-85
2023/03/31 01:16:19;;;;;;;70.75;10.20;;;8.20;82.70;;;;;;4103290;28;20411;-85
2023/03/31 01:18:26;;;;;;;77.05;12.82;;;8.30;82.90;;;;;;4122671;28;20093;-84
2023/03/31 01:20:55;;;;;;;85.38;11.90;;;8.30;83.00;;;;;;4109661;28;20034;-88
2023/03/31 01:23:33;;;;;;;70.05;10.25;;;8.20;83.10;;;;;;4125299;28;20149;-84
2023/03/31 01:25:37;;;;;;;82.53;11.35;;;8.30;83.10;;;;;;4103493;28;20037;-84
2023/03/31 01:27:58;;;;;;;76.13;11.15;;;8.20;83.10;;;;;;4118385;28;20117;-85
2023/03/31 01:30:32;;;;;;;65.35;9.32;;;8.30;83.20;;;;;;4116287;28;20026;-84
2023/03/31 01:33:16;;;;;;;80.07;11.38;;;8.30;83.20;;;;;;4089986;28;20043;-86
2023/03/31 01:35:51;;;;;;;79.88;11.40;;;8.20;83.30;;;;;;4091527;28;20043;-84
2023/03/31 01:38:18;;;;;;;73.25;10.85;;;8.40;83.40;;;;;;4118452;28;21491;-85
2023/03/31 01:40:19;;;;;;;80.47;10.35;;;8.30;83.30;;;;;;4058778;28;20131;-85
2023/03/31 01:42:50;;;;;;;88.20;11.07;;;8.40;83.30;;;;;;4100281;28;20027;-83
2023/03/31 01:45:28;;;;;;;67.85;10.50;;;8.40;83.50;;;;;;4104364;28;20073;-85
2023/03/31 01:47:50;;;;;;;72.32;8.85;;;8.40;83.60;;;;;;4093312;28;20122;-85
2023/03/31 01:50:05;;;;;;;84.03;9.68;;;8.40;83.40;;;;;;4106181;28;20022;-85
2023/03/31 01:52:21;;;;;;;73.25;11.35;;;8.40;83.50;;;;;;4109147;28;20646;-85
2023/03/31 01:54:51;;;;;;;75.72;11.20;;;8.40;83.50;;;;;;4106952;28;20125;-85
2023/03/31 01:57:28;;;;;;;81.25;9.77;;;8.50;83.80;;;;;;4127050;28;20033;-84
2023/03/31 02:00:15;;;;;;;90.97;10.73;;;8.50;83.80;;;;;;4112637;28;20054;-83
2023/03/31 02:02:41;;;;;;;74.35;9.13;;;8.50;83.70;;;;;;4067989;29;20561;-83
2023/03/31 02:05:09;;;;;;;62.22;8.85;;;8.50;83.60;;;;;;4066748;29;20153;-84
2023/03/31 02:07:59;;;;;;;52.33;7.38;;;8.50;83.60;;;;;;4066393;29;20040;-84
2023/03/31 02:10:22;;;;;;;66.22;8.13;;;8.50;83.80;;;;;;4052826;29;20029;-86
2023/03/31 02:12:44;;;;;;;50.78;7.70;;;8.60;83.60;;;;;;4069395;29;20080;-83
2023/03/31 02:15:10;;;;;;;45.83;6.75;;;8.60;83.60;;;;;;4059567;29;20040;-84
2023/03/31 02:17:31;;;;;;;46.88;6.47;;;8.60;83.60;;;;;;4067600;29;20061;-84
2023/03/31 02:19:52;;;;;;;40.70;5.35;;;8.50;83.60;;;;;;4058536;29;20047;-84
2023/03/31 02:21:54;;;;;;;25.98;5.07;;;8.70;83.90;;;;;;4056880;29;20025;-84
2023/03/31 02:24:04;;;;;;;33.05;5.15;;;8.70;83.90;;;;;;4069362;29;20027;-85
2023/03/31 02:26:13;;;;;;;30.60;4.53;;;8.50;83.70;;;;;;4052007;29;20043;-84
2023/03/31 02:28:20;;;;;;;29.08;4.78;;;8.70;83.90;;;;;;4071896;29;20546;-85
2023/03/31 02:30:21;;;;;;;33.33;4.43;;;8.60;83.80;;;;;;4052035;29;20046;-85
2023/03/31 02:32:31;;;;;;;42.05;5.50;;;8.60;83.90;;;;;;4069165;29;22009;-85
2023/03/31 02:34:32;;;;;;;31.52;4.97;;;8.60;83.90;;;;;;4054883;29;20040;-84
2023/03/31 02:36:34;;;;;;;41.95;6.35;;;8.80;84.00;;;;;;4067138;29;20032;-84
2023/03/31 02:38:50;;;;;;;43.50;7.03;;;8.80;84.00;;;;;;4049345;29;20134;-85
2023/03/31 02:40:52;;;;;;;40.58;6.00;;;8.70;83.90;;;;;;4110641;28;20030;-85
2023/03/31 02:42:56;;;;;;;45.53;6.43;;;8.80;83.90;;;;;;4130683;28;20040;-85
2023/03/31 02:45:04;;;;;;;46.28;6.43;;;8.70;84.00;;;;;;4098094;28;20031;-85
2023/03/31 02:47:13;;;;;;;52.55;7.53;;;8.70;83.90;;;;;;4114207;28;20038;-85
2023/03/31 02:49:18;;;;;;;38.65;5.68;;;8.70;83.90;;;;;;4108866;28;20030;-84
2023/03/31 02:51:45;;;;;;;48.95;6.30;;;8.80;83.90;;;;;;4093681;28;20038;-85
2023/03/31 02:54:04;;;;;;;43.33;7.07;;;8.70;83.80;;;;;;4109412;28;20034;-84
2023/03/31 02:56:49;;;;;;;40.72;6.43;;;8.80;83.80;;;;;;4116168;28;20054;-84
2023/03/31 02:59:02;;;;;;;34.58;5.65;;;8.70;83.80;;;;;;4128687;28;20046;-83
2023/03/31 03:01:40;;;;;;;32.25;5.60;;;8.70;83.80;;;;;;4110840;28;20086;-85
2023/03/31 03:04:19;;;;;;;25.70;4.93;;;8.90;84.00;;;;;;4124875;28;20031;-84
2023/03/31 03:06:44;;;;;;;23.52;5.40;;;8.80;83.80;;;;;;4112701;28;20035;-85
2023/03/31 03:09:13;;;;;;;18.48;3.50;;;8.80;83.80;;;;;;4114284;28;20221;-85
2023/03/31 03:11:26;;;;;;;17.88;3.58;;;8.80;83.80;;;;;;4128847;28;20041;-85
2023/03/31 03:13:46;;;;;;;26.40;4.93;;;8.80;83.70;;;;;;4114122;28;20026;-85
2023/03/31 03:15:52;;;;;;;37.75;6.47;;;8.80;83.70;;;;;;4126256;28;20698;-84
2023/03/31 03:17:55;;;;;;;35.03;5.97;;;8.70;83.60;;;;;;4110304;28;20030;-85
2023/03/31 03:20:06;;;;;;;45.58;7.15;;;8.90;83.80;;;;;;4108622;28;20026;-85
2023/03/31 03:22:07;;;;;;;51.17;7.45;;;8.90;83.80;;;;;;4122636;28;20030;-84
2023/03/31 03:24:15;;;;;;;42.88;6.43;;;8.90;83.80;;;;;;4106696;28;20705;-85
2023/03/31 03:26:20;;;;;;;36.70;7.35;;;8.90;83.80;;;;;;4113261;28;20210;-85
2023/03/31 03:28:21;;;;;;;48.22;7.25;;;8.80;83.70;;;;;;4127726;28;20493;-86
2023/03/31 03:30:24;;;;;;;47.78;7.72;;;8.90;83.80;;;;;;4108555;28;20035;-84
2023/03/31 03:32:27;;;;;;;40.78;6.72;;;8.90;83.80;;;;;;4114612;28;20729;-85
2023/03/31 03:34:28;;;;;;;36.97;7.40;;;8.90;84.60;;;;;;4109410;28;20037;-84
2023/03/31 03:36:29;;;;;;;44.38;7.65;;;8.80;83.70;;;;;;4095205;28;20071;-86
2023/03/31 03:38:39;;;;;;;51.85;8.23;;;8.80;83.70;;;;;;4099359;28;20070;-85
2023/03/31 03:40:40;;;;;;;53.05;8.18;;;8.80;83.70;;;;;;4110386;28;20039;-84
2023/03/31 03:42:43;;;;;;;46.97;7.65;;;9.00;84.00;;;;;;4092042;28;20031;-85
2023/03/31 03:44:43;;;;;;;53.25;7.47;;;8.90;83.80;;;;;;4093654;28;20035;-86
2023/03/31 03:46:50;;;;;;;33.80;6.82;;;8.90;83.80;;;;;;4122584;28;20117;-85
2023/03/31 03:48:54;;;;;;;27.90;4.82;;;8.90;83.80;;;;;;4107455;28;20041;-85
2023/03/31 03:51:01;;;;;;;25.67;5.00;;;8.90;83.80;;;;;;4108527;28;20502;-86
2023/03/31 03:53:06;;;;;;;33.17;5.43;;;8.90;83.70;;;;;;4088716;28;20270;-86
2023/03/31 03:55:18;;;;;;;31.35;5.18;;;8.90;83.60;;;;;;4091669;28;20309;-85
2023/03/31 03:57:19;;;;;;;28.35;5.15;;;9.00;83.80;;;;;;4105173;28;20054;-84
2023/03/31 03:59:25;;;;;;;26.08;4.95;;;8.90;83.70;;;;;;4109539;28;20073;-86
2023/03/31 04:01:26;;;;;;;36.97;5.22;;;8.90;83.70;;;;;;4103878;28;20035;-85
2023/03/31 04:03:38;;;;;;;39.88;5.22;;;9.00;83.70;;;;;;4095353;28;20066;-85
2023/03/31 04:05:49;;;;;;;41.60;7.20;;;8.80;83.70;;;;;;4090674;28;20433;-87
2023/03/31 04:07:53;;;;;;;41.08;6.85;;;8.90;83.70;;;;;;4122369;28;20109;-85
2023/03/31 04:09:57;;;;;;;36.95;6.95;;;8.90;83.70;;;;;;4124316;28;20022;-85
2023/03/31 04:12:18;;;;;;;70.10;9.70;;;8.80;83.60;;;;;;4113162;28;20030;-85
2023/03/31 04:14:39;;;;;;;51.75;7.65;;;8.90;83.70;;;;;;4111914;28;20126;-85
2023/03/31 04:17:02;;;;;;;62.72;10.05;;;9.00;83.60;;;;;;4108489;28;20081;-85
2023/03/31 04:19:24;;;;;;;48.92;8.95;;;8.90;83.60;;;;;;4120711;28;20066;-86
2023/03/31 04:22:10;;;;;;;77.18;10.30;;;8.90;83.50;;;;;;4120277;28;20033;-86
2023/03/31 04:24:31;;;;;;;61.25;9.13;;;8.90;83.60;;;;;;4121796;28;20034;-84
2023/03/31 04:26:53;;;;;;;57.97;9.77;;;9.00;83.60;;;;;;4108746;28;20031;-85
2023/03/31 04:29:21;;;;;;;69.45;9.90;;;9.00;83.50;;;;;;4109486;28;20043;-85
2023/03/31 04:31:45;;;;;;;67.90;9.68;;;8.90;83.50;;;;;;4110825;28;20034;-86
2023/03/31 04:33:49;;;;;;;74.82;9.02;;;8.90;83.60;;;;;;4123856;28;20436;-85
2023/03/31 04:35:51;;;;;;;67.15;9.45;;;8.80;84.20;;;;;;4092886;28;20031;-86
2023/03/31 04:38:01;;;;;;;72.68;11.20;;;8.90;83.50;;;;;;4092792;28;20051;-85
2023/03/31 04:40:06;;;;;;;72.32;9.88;;;8.90;83.60;;;;;;4095252;28;20028;-84
2023/03/31 04:42:28;;;;;;;71.00;8.93;;;8.80;83.50;;;;;;4109585;28;20049;-85
2023/03/31 04:44:29;;;;;;;86.40;10.63;;;8.80;83.50;;;;;;4058464;29;20565;-85
2023/03/31 04:46:34;;;;;;;82.40;12.05;;;9.00;83.60;;;;;;4076874;29;20043;-85
2023/03/31 04:48:45;;;;;;;70.75;10.55;;;8.80;83.60;;;;;;4058354;29;20036;-85
2023/03/31 04:50:46;;;;;;;66.47;9.80;;;8.90;83.70;;;;;;4072225;29;20574;-85
2023/03/31 04:52:47;;;;;;;78.60;11.43;;;8.90;83.60;;;;;;4061509;29;20119;-84
2023/03/31 04:54:48;;;;;;;68.15;10.88;;;8.90;83.70;;;;;;4090312;28;20031;-86
2023/03/31 04:56:49;;;;;;;81.03;10.95;;;8.90;83.70;;;;;;4076010;29;20510;-86
2023/03/31 04:58:50;;;;;;;65.35;10.05;;;8.90;83.70;;;;;;4067733;29;20032;-86
2023/03/31 05:00:52;;;;;;;66.80;11.30;;;8.90;83.80;;;;;;4073334;29;20644;-87
2023/03/31 05:03:02;;;;;;;78.28;10.85;;;8.90;83.80;;;;;;4086164;28;20381;-85
2023/03/31 05:05:05;;;;;;;81.72;11.75;;;8.90;83.90;;;;;;4089369;28;20027;-86
2023/03/31 05:07:06;;;;;;;92.10;10.60;;;8.80;83.70;;;;;;4091144;28;20043;-85
2023/03/31 05:09:08;;;;;;;79.28;10.80;;;8.90;83.90;;;;;;4075391;29;20439;-85
2023/03/31 05:11:16;;;;;;;86.90;11.18;;;8.90;83.90;;;;;;4063289;29;20116;-86
2023/03/31 05:13:19;;;;;;;84.32;11.82;;;8.90;83.80;;;;;;4084516;29;20039;-85
2023/03/31 05:15:33;;;;;;;83.28;11.55;;;8.80;83.80;;;;;;4053691;29;20044;-85
2023/03/31 05:17:36;;;;;;;69.80;10.57;;;8.90;83.80;;;;;;4084707;28;20031;-86
2023/03/31 05:19:57;;;;;;;77.30;11.32;;;9.00;83.90;;;;;;4088416;28;20098;-84
2023/03/31 05:22:19;;;;;;;80.93;10.10;;;8.90;83.90;;;;;;4095802;28;20038;-85
2023/03/31 05:24:23;;;;;;;72.47;10.32;;;9.00;83.90;;;;;;4108928;28;20023;-85
2023/03/31 05:26:51;;;;;;;91.65;12.55;;;8.90;83.80;;;;;;4110696;28;20050;-85
2023/03/31 05:29:12;;;;;;;83.50;11.18;;;8.90;83.70;;;;;;4105348;28;20035;-85
2023/03/31 05:31:33;;;;;;;75.18;10.88;;;9.00;83.90;;;;;;4119362;28;20077;-85
2023/03/31 05:33:53;;;;;;;92.35;12.02;;;9.00;83.90;;;;;;4108643;28;20125;-86
2023/03/31 05:36:18;;;;;;;79.45;11.52;;;9.00;83.80;;;;;;4121463;28;20091;-85
2023/03/31 05:38:40;;;;;;;60.92;9.57;;;9.00;83.70;;;;;;4107270;28;20096;-85
2023/03/31 05:41:00;;;;;;;78.30;11.68;;;9.00;83.80;;;;;;4121941;28;20096;-84
2023/03/31 05:43:21;;;;;;;69.28;11.07;;;8.90;83.70;;;;;;4123449;28;20042;-85
2023/03/31 05:45:42;;;;;;;85.53;12.55;;;9.00;83.80;;;;;;4104417;28;20046;-86
2023/03/31 05:48:12;;;;;;;75.55;11.10;;;9.00;83.70;;;;;;4117131;28;20081;-85
2023/03/31 05:50:24;;;;;;;96.75;11.85;;;8.90;83.60;;;;;;4117346;28;20034;-85
2023/03/31 05:52:25;;;;;;;76.22;11.73;;;8.90;83.90;;;;;;4104763;28;20126;-86
2023/03/31 05:54:29;;;;;;;73.97;10.63;;;9.00;83.80;;;;;;4087059;28;20058;-88
2023/03/31 05:56:30;;;;;;;70.95;11.00;;;8.80;83.60;;;;;;4102512;28;20118;-86
2023/03/31 05:58:36;;;;;;;77.93;11.55;;;8.90;83.70;;;;;;4091016;28;20065;-86
2023/03/31 06:01:00;;;;;;;103.90;12.90;;;9.10;83.80;;;;;;4123066;28;20038;-85
2023/03/31 06:03:09;;;;;;;88.35;13.20;;;9.00;83.80;;;;;;4101529;28;20042;-86
2023/03/31 06:05:10;;;;;;;72.97;10.35;;;8.90;83.70;;;;;;4122084;28;20043;-85
2023/03/31 06:07:12;;;;;;;77.72;11.98;;;9.00;83.70;;;;;;4108523;28;20031;-85
2023/03/31 06:09:12;;;;;;;77.75;10.98;;;9.00;83.80;;;;;;4123530;28;20198;-85
2023/03/31 06:11:19;;;;;;;83.20;11.90;;;9.00;83.80;;;;;;4107448;28;20309;-86
2023/03/31 06:13:20;;;;;;;70.32;10.32;;;9.00;83.70;;;;;;4109136;28;20043;-86
2023/03/31 06:15:20;;;;;;;73.45;11.00;;;9.00;83.90;;;;;;4100961;28;20547;-85
2023/03/31 06:17:21;;;;;;;60.08;9.82;;;9.00;84.00;;;;;;4133501;28;20018;-85
2023/03/31 06:19:23;;;;;;;70.57;10.55;;;9.00;84.00;;;;;;4128494;28;20027;-85
2023/03/31 06:21:24;;;;;;;69.43;9.90;;;9.00;83.90;;;;;;4112009;28;20033;-85
2023/03/31 06:23:26;;;;;;;68.05;10.60;;;9.10;84.00;;;;;;4128283;28;20082;-85
2023/03/31 06:25:30;;;;;;;72.65;10.57;;;9.00;84.00;;;;;;4098593;28;20070;-86
2023/03/31 06:27:30;;;;;;;65.05;12.02;;;9.00;84.00;;;;;;4114940;28;20138;-85
2023/03/31 06:29:31;;;;;;;73.13;10.13;;;9.00;84.00;;;;;;4115715;28;20492;-86
2023/03/31 06:31:32;;;;;;;75.30;10.82;;;9.10;84.00;;;;;;4096973;28;20027;-87
2023/03/31 06:33:34;;;;;;;66.88;10.07;;;9.10;84.10;;;;;;4099505;28;20055;-86
2023/03/31 06:35:38;;;;;;;69.85;9.93;;;9.10;84.00;;;;;;4108144;28;20034;-86
2023/03/31 06:37:40;;;;;;;79.65;10.10;;;9.10;84.10;;;;;;4108357;28;20401;-85
2023/03/31 06:40:03;;;;;;;59.40;8.90;;;9.00;84.20;;;;;;4098800;28;20027;-87
2023/03/31 06:42:06;;;;;;;60.40;8.73;;;9.10;84.20;;;;;;4113061;28;20090;-85
2023/03/31 06:44:32;;;;;;;63.28;7.78;;;9.20;84.20;;;;;;4114845;28;20051;-85
2023/03/31 06:46:53;;;;;;;52.40;8.45;;;9.00;84.00;;;;;;4117566;28;20034;-87
2023/03/31 06:49:17;;;;;;;51.72;8.18;;;9.20;84.30;;;;;;4114201;28;20066;-86
2023/03/31 06:51:38;;;;;;;45.75;7.95;;;9.10;84.20;;;;;;4119510;28;21919;-85
2023/03/31 06:53:58;;;;;;;50.08;7.72;;;9.20;84.20;;;;;;4128242;28;20064;-85
2023/03/31 06:56:19;;;;;;;42.28;6.38;;;9.10;84.10;;;;;;4129520;28;20030;-86
2023/03/31 06:58:40;;;;;;;43.45;6.97;;;9.20;84.20;;;;;;4115832;28;20118;-86
2023/03/31 07:01:02;;;;;;;34.08;6.75;;;9.20;84.20;;;;;;4129896;28;20030;-86
2023/03/31 07:03:28;;;;;;;34.40;6.10;;;9.30;84.20;;;;;;4128098;28;20022;-86
2023/03/31 07:05:53;;;;;;;31.13;5.65;;;9.20;84.20;;;;;;4121154;28;20022;-85
2023/03/31 07:08:17;;;;;;;35.35;6.43;;;9.30;84.30;;;;;;4115357;28;20478;-85
2023/03/31 07:10:40;;;;;;;26.45;5.30;;;9.20;84.20;;;;;;4118573;28;20110;-85
2023/03/31 07:12:44;;;;;;;22.33;5.43;;;9.30;84.30;;;;;;4096354;28;20370;-85
2023/03/31 07:14:51;;;;;;;26.15;5.72;;;9.20;84.30;;;;;;4098613;28;20035;-86
2023/03/31 07:16:54;;;;;;;27.55;5.30;;;9.30;84.40;;;;;;4122355;28;20034;-85
2023/03/31 07:18:58;;;;;;;;;;;9.30;84.40;;;;;;4105800;28;20529;-86
2023/03/31 07:20:59;;;;;;;21.70;4.15;;;9.40;84.90;;;;;;4107412;28;19914;-87
2023/03/31 07:23:27;;;;;;;27.58;4.78;;;9.40;84.30;;;;;;4128297;28;20037;-85
2023/03/31 07:25:28;;;;;;;28.55;5.22;;;9.40;84.40;;;;;;4094288;28;20477;-86
2023/03/31 07:27:29;;;;;;;25.08;4.78;;;9.40;84.30;;;;;;4109647;28;20030;-85
2023/03/31 07:29:30;;;;;;;19.85;4.15;;;9.40;84.40;;;;;;4106065;28;20069;-88
2023/03/31 07:31:34;;;;;;;25.05;5.15;;;9.50;84.50;;;;;;4095337;29;20071;-84
2023/03/31 07:33:34;;;;;;;25.77;5.22;;;9.50;84.50;;;;;;4100903;28;20041;-85
2023/03/31 07:35:40;;;;;;;35.88;5.93;;;9.50;84.60;;;;;;4124059;28;20050;-84
2023/03/31 07:37:43;;;;;;;20.80;4.80;;;9.50;84.60;;;;;;4092694;28;20031;-83
2023/03/31 07:39:44;;;;;;;;;;;9.50;84.60;;;;;;4122803;28;20089;-85
2023/03/31 07:41:45;;;;;;;39.28;5.10;;;9.50;85.00;;;;;;4121718;28;20221;-83
2023/03/31 07:43:47;;;;;;;32.42;5.80;;;9.60;84.70;;;;;;4106547;28;20043;-84
2023/03/31 07:45:49;;;;;;;40.58;6.00;;;9.50;84.50;;;;;;4092761;28;20035;-84
2023/03/31 07:47:51;;;;;;;36.05;5.50;;;9.60;84.60;;;;;;4107673;28;20039;-84
2023/03/31 07:49:52;;;;;;;33.22;6.70;;;9.70;84.80;;;;;;4124202;28;20032;-84
2023/03/31 07:51:52;;;;;;;37.88;6.60;;;9.70;84.80;;;;;;4110218;28;20508;-87
2023/03/31 07:53:54;;;;;;;34.53;5.95;;;9.70;84.70;;;;;;4107048;28;20039;-83
2023/03/31 07:55:55;;;;;;;31.02;5.20;;;9.60;84.70;;;;;;4108009;28;20292;-85
2023/03/31 07:57:59;;;;;;;32.75;5.90;;;9.80;84.70;;;;;;4122649;28;20019;-84
2023/03/31 08:00:04;;;;;;;29.65;5.70;;;9.70;84.70;;;;;;4099262;28;20621;-84
2023/03/31 08:02:06;;;;;;;28.55;5.97;;;9.80;84.80;;;;;;4117639;28;20485;-84
2023/03/31 08:04:29;;;;;;;35.65;5.53;;;9.80;84.70;;;;;;4108358;28;20026;-84
2023/03/31 08:06:30;;;;;;;29.92;5.13;;;9.80;84.70;;;;;;4095045;28;20074;-84
2023/03/31 08:08:37;;;;;;;40.72;6.07;;;9.80;84.60;;;;;;4113357;28;20133;-85
2023/03/31 08:10:39;;;;;;;31.23;6.03;;;9.90;84.70;;;;;;4103549;28;20054;-84
2023/03/31 08:12:41;;;;;;;35.83;6.95;;;9.90;84.60;;;;;;4108988;28;20130;-84
2023/03/31 08:14:45;;;;;;;35.90;5.85;;;9.90;84.50;;;;;;4106320;28;20058;-85
2023/03/31 08:17:06;;;;;;;29.05;5.15;;;9.90;84.50;;;;;;4102469;28;20035;-85
2023/03/31 08:19:27;;;;;;;39.00;6.78;;;10.00;84.40;;;;;;4108953;28;20042;-84
2023/03/31 08:21:56;;;;;;;35.25;5.50;;;10.00;84.30;;;;;;4122550;28;20034;-84
2023/03/31 08:24:20;;;;;;;36.65;6.22;;;10.00;84.20;;;;;;4122536;28;20038;-83
2023/03/31 08:26:47;;;;;;;35.17;5.68;;;10.00;84.30;;;;;;4107746;28;20404;-85
2023/03/31 08:29:07;;;;;;;31.08;5.13;;;10.00;84.10;;;;;;4119669;28;20043;-84
2023/03/31 08:31:29;;;;;;;31.92;5.28;;;10.00;84.10;;;;;;4127569;28;20038;-84
2023/03/31 08:34:03;;;;;;;;;;;;;;;;;;;;;
2023/03/31 08:36:25;;;;;;;24.20;5.18;;;10.10;84.20;;;;;;4130697;28;20034;-85
2023/03/31 08:43:12;;;;;;;38.30;6.05;;;10.10;84.30;;;;;;4106047;28;20043;-84
2023/03/31 08:45:40;;;;;;;35.83;5.75;;;10.20;84.40;;;;;;4094649;28;20023;-83
2023/03/31 08:48:53;;;;;;;28.17;5.07;;;10.30;84.50;;;;;;4107984;28;20037;-84
2023/03/31 08:51:38;;;;;;;24.83;4.97;;;10.30;84.50;;;;;;4079336;28;20032;-85
2023/03/31 08:54:03;;;;;;;31.45;5.13;;;10.40;84.80;;;;;;4101076;28;20118;-85
2023/03/31 08:56:08;;;;;;;31.63;5.20;;;10.50;84.90;;;;;;4091759;28;20039;-84
2023/03/31 08:58:31;;;;;;;32.90;6.40;;;10.50;84.90;;;;;;4092568;28;20035;-84
2023/03/31 09:00:44;;;;;;;29.75;5.65;;;10.50;84.90;;;;;;4069057;29;20611;-84
2023/03/31 09:02:56;;;;;;;26.02;5.82;;;10.60;85.00;;;;;;4076388;29;20027;-84
2023/03/31 09:05:34;;;;;;;34.47;5.25;;;10.70;85.00;;;;;;4079429;29;20122;-85
2023/03/31 09:08:02;;;;;;;30.67;5.63;;;10.70;84.80;;;;;;4080666;28;20035;-84
2023/03/31 09:10:18;;;;;;;26.80;4.85;;;10.70;84.60;;;;;;4094316;28;20035;-84
2023/03/31 09:12:54;;;;;;;26.60;5.45;;;10.80;84.40;;;;;;4087771;28;20027;-84
2023/03/31 09:15:05;;;;;;;33.30;5.13;;;10.80;84.20;;;;;;4075516;29;20035;-84
2023/03/31 09:17:45;;;;;;;21.98;4.88;;;10.90;84.10;;;;;;4076727;29;20055;-84
2023/03/31 09:20:29;;;;;;;24.33;4.82;;;10.80;83.70;;;;;;4027409;29;20132;-85
2023/03/31 09:22:32;;;;;;;;;;;10.90;83.70;;;;;;3995117;29;20038;-84
2023/03/31 09:24:44;;;;;;;29.02;4.65;;;11.00;83.70;;;;;;4029114;29;20631;-84
2023/03/31 09:26:54;;;;;;;35.17;4.95;;;11.00;83.50;;;;;;4034119;29;20033;-84
2023/03/31 09:29:09;;;;;;;20.95;4.78;;;10.90;83.40;;;;;;4034560;29;20054;-84
2023/03/31 09:31:16;;;;;;;34.75;6.15;;;11.00;83.30;;;;;;4009525;29;20042;-85
2023/03/31 09:33:32;;;;;;;21.30;4.60;;;11.00;83.30;;;;;;4018354;29;20037;-85
2023/03/31 09:35:33;;;;;;;29.48;4.88;;;11.10;83.30;;;;;;4033747;29;20037;-84
2023/03/31 09:37:41;;;;;;;31.73;5.45;;;11.00;83.30;;;;;;4033907;29;20045;-84
2023/03/31 09:43:10;;;;;;;33.03;6.30;;;11.00;83.20;;;;;;3992782;29;20049;-84
2023/03/31 09:45:32;;;;;;;31.80;5.45;;;11.10;83.10;;;;;;3990264;29;20038;-85
2023/03/31 09:48:02;;;;;;;24.77;5.13;;;11.20;83.20;;;;;;3987676;29;20038;-84
2023/03/31 09:50:03;;;;;;;24.77;5.47;;;11.10;83.10;;;;;;3971315;29;20043;-84
2023/03/31 09:52:14;;;;;;;31.20;5.78;;;11.20;83.20;;;;;;3994267;29;20568;-84
2023/03/31 09:54:23;;;;;;;28.85;5.93;;;11.20;83.20;;;;;;3992908;29;20049;-86
2023/03/31 09:56:45;;;;;;;28.80;5.55;;;11.30;83.20;;;;;;4002579;29;20037;-84
2023/03/31 09:58:48;;;;;;;34.50;5.68;;;11.30;83.10;;;;;;3988229;29;20430;-85
2023/03/31 10:01:16;;;;;;;32.25;6.07;;;11.40;83.40;;;;;;4023216;29;20058;-84
2023/03/31 10:03:17;;;;;;;27.17;5.25;;;11.40;83.30;;;;;;3983861;29;20038;-84
2023/03/31 10:05:35;;;;;;;33.45;6.03;;;11.50;83.70;;;;;;3990364;29;20053;-84
2023/03/31 10:07:39;;;;;;;25.35;5.85;;;11.60;83.50;;;;;;3989440;29;20050;-85
2023/03/31 10:09:42;;;;;;;26.02;4.78;;;11.50;83.40;;;;;;4005010;29;20341;-84
2023/03/31 10:11:56;;;;;;;29.08;5.57;;;11.60;83.50;;;;;;3991178;29;20070;-83
2023/03/31 10:14:13;;;;;;;25.42;5.78;;;11.70;83.30;;;;;;4004437;29;20046;-83
2023/03/31 10:16:29;;;;;;;32.58;5.50;;;11.80;83.30;;;;;;4003177;29;20034;-83
2023/03/31 10:18:35;;;;;;;26.25;6.53;;;11.80;83.20;;;;;;3992613;29;20695;-84
2023/03/31 10:23:21;;;;;;;23.75;5.13;;;11.90;82.00;;;;;;4037774;29;19911;-83
2023/03/31 10:25:26;;;;;;;29.80;5.97;;;12.10;82.60;;;;;;4037398;29;20212;-83
2023/03/31 10:27:30;;;;;;;24.40;5.32;;;12.20;82.50;;;;;;4008355;29;20053;-83
2023/03/31 10:29:32;;;;;;;;;;;12.30;82.30;;;;;;4037947;29;20154;-83
2023/03/31 10:31:35;;;;;;;25.25;5.82;;;12.20;81.60;;;;;;4036783;29;19998;-83
2023/03/31 10:33:43;;;;;;;;;;;12.30;81.90;;;;;;4023568;29;20046;-83
2023/03/31 10:35:48;;;;;;;25.55;5.28;;;12.30;80.70;;;;;;4039025;29;19948;-83
2023/03/31 10:37:55;;;;;;;36.53;6.75;;;12.40;81.20;;;;;;4036414;29;20029;-83
2023/03/31 10:40:30;;;;;;;27.13;5.68;;;12.30;80.80;;;;;;4028151;29;20037;-83
2023/03/31 10:42:36;;;;;;;25.13;5.20;;;12.40;80.20;;;;;;4037701;29;20420;-83
2023/03/31 10:44:38;;;;;;;32.97;5.80;;;12.50;80.50;;;;;;4032931;29;20121;-84
2023/03/31 10:46:47;;;;;;;25.67;5.30;;;12.40;80.20;;;;;;4039511;29;20053;-83
2023/03/31 10:48:49;;;;;;;27.52;5.57;;;12.50;79.80;;;;;;4019265;29;20026;-83
2023/03/31 10:50:51;;;;;;;17.83;4.97;;;12.50;79.80;;;;;;4053024;29;20176;-83
2023/03/31 10:52:51;;;;;;;19.48;4.78;;;12.60;79.80;;;;;;4022847;29;20210;-83
2023/03/31 10:54:57;;;;;;;21.00;4.90;;;12.50;79.70;;;;;;4050966;29;20044;-83
2023/03/31 10:57:35;;;;;;;24.08;4.55;;;12.60;79.70;;;;;;4041929;29;20037;-83
2023/03/31 11:00:04;;;;;;;21.10;4.32;;;12.60;79.10;;;;;;4025003;29;20037;-83
2023/03/31 11:02:41;;;;;;;22.05;4.22;;;12.70;79.50;;;;;;4081842;29;20027;-82
2023/03/31 11:05:12;;;;;;;22.17;4.50;;;12.80;79.50;;;;;;4086737;28;20036;-83
2023/03/31 11:07:43;;;;;;;19.08;4.55;;;12.80;78.80;;;;;;4099345;28;20039;-82
2023/03/31 11:10:19;;;;;;;24.58;5.45;;;13.00;78.60;;;;;;4080162;29;20074;-83
2023/03/31 11:12:57;;;;;;;21.67;5.00;;;13.00;78.00;;;;;;4078500;28;20047;-82
2023/03/31 11:15:35;;;;;;;19.30;4.45;;;13.00;77.60;;;;;;4086656;28;20054;-82
2023/03/31 11:18:03;;;;;;;21.50;5.10;;;13.00;77.50;;;;;;4091286;28;20045;-82
2023/03/31 11:21:00;;;;;;;20.52;4.10;;;13.20;76.90;;;;;;4091959;28;20122;-84
2023/03/31 11:23:45;;;;;;;19.15;4.00;;;13.10;75.90;;;;;;4082406;28;20032;-82
2023/03/31 11:26:34;;;;;;;26.17;4.93;;;13.20;76.30;;;;;;4099761;28;20058;-83
2023/03/31 11:29:15;;;;;;;22.58;4.85;;;13.20;76.00;;;;;;4097364;28;20043;-84
2023/03/31 11:31:51;;;;;;;23.30;4.93;;;13.30;76.00;;;;;;4092509;28;20046;-84
2023/03/31 11:34:21;;;;;;;34.28;5.70;;;13.20;74.80;;;;;;4090076;28;20035;-84
2023/03/31 11:36:43;;;;;;;27.60;5.13;;;13.20;72.90;;;;;;4088604;28;20209;-83
2023/03/31 11:39:17;;;;;;;22.88;5.47;;;13.20;73.00;;;;;;4093517;28;20115;-84
2023/03/31 11:41:50;;;;;;;23.65;4.55;;;13.30;74.00;;;;;;4060537;29;20059;-83
2023/03/31 11:44:01;;;;;;;23.52;4.63;;;13.30;74.30;;;;;;4074687;29;20031;-83
2023/03/31 11:46:40;;;;;;;26.63;5.30;;;13.40;74.40;;;;;;4090548;28;20039;-83